sensor_id;sensor_type;location;lat;lon;timestamp;P1;durP1;ratioP1;P2;durP2;ratioP2
75005;SDS011;63553;51.814;4.600;2022-10-16T00:01:42;2.00;;;1.80;;
75005;SDS011;63553;51.814;4.600;2022-10-16T00:04:07;4.32;;;1.75;;
75005;SDS011;63553;51.814;4.600;2022-10-16T00:06:33;1.65;;;1.48;;
75005;SDS011;63553;51.814;4.600;2022-10-16T00:08:58;1.30;;;1.20;;
75005;SDS011;63553;51.814;4.600;2022-10-16T00:11:25;3.35;;;1.55;;
75005;SDS011;63553;51.814;4.600;2022-10-16T00:13:59;3.72;;;1.90;;
75005;SDS011;63553;51.814;4.600;2022-10-16T00:16:27;2.15;;;1.63;;
75005;SDS011;63553;51.814;4.600;2022-10-16T00:18:53;2.53;;;1.63;;
75005;SDS011;63553;51.814;4.600;2022-10-16T00:21:20;2.05;;;1.75;;
75005;SDS011;63553;51.814;4.600;2022-10-16T00:23:49;1.63;;;1.52;;
75005;SDS011;63553;51.814;4.600;2022-10-16T00:26:16;1.73;;;1.58;;
75005;SDS011;63553;51.814;4.600;2022-10-16T00:28:44;8.00;;;1.80;;
75005;SDS011;63553;51.814;4.600;2022-10-16T00:31:11;3.10;;;1.65;;
75005;SDS011;63553;51.814;4.600;2022-10-16T00:33:38;3.42;;;1.52;;
75005;SDS011;63553;51.814;4.600;2022-10-16T00:36:04;3.08;;;1.70;;
75005;SDS011;63553;51.814;4.600;2022-10-16T00:38:31;5.32;;;1.85;;
75005;SDS011;63553;51.814;4.600;2022-10-16T00:40:57;1.58;;;1.42;;
75005;SDS011;63553;51.814;4.600;2022-10-16T00:46:18;1.63;;;1.52;;
75005;SDS011;63553;51.814;4.600;2022-10-16T00:48:48;1.92;;;1.80;;
75005;SDS011;63553;51.814;4.600;2022-10-16T00:51:21;2.22;;;1.45;;
75005;SDS011;63553;51.814;4.600;2022-10-16T00:53:49;3.45;;;1.80;;
75005;SDS011;63553;51.814;4.600;2022-10-16T00:56:15;1.85;;;1.38;;
75005;SDS011;63553;51.814;4.600;2022-10-16T00:58:41;1.90;;;1.63;;
75005;SDS011;63553;51.814;4.600;2022-10-16T01:01:06;2.42;;;1.23;;
75005;SDS011;63553;51.814;4.600;2022-10-16T01:03:33;1.40;;;1.30;;
75005;SDS011;63553;51.814;4.600;2022-10-16T01:08:57;2.05;;;1.45;;
75005;SDS011;63553;51.814;4.600;2022-10-16T01:11:33;2.45;;;1.58;;
75005;SDS011;63553;51.814;4.600;2022-10-16T01:14:11;2.85;;;1.50;;
75005;SDS011;63553;51.814;4.600;2022-10-16T01:16:46;2.28;;;1.70;;
75005;SDS011;63553;51.814;4.600;2022-10-16T01:19:20;3.10;;;1.65;;
75005;SDS011;63553;51.814;4.600;2022-10-16T01:22:29;2.22;;;1.65;;
75005;SDS011;63553;51.814;4.600;2022-10-16T01:25:16;2.42;;;1.63;;
75005;SDS011;63553;51.814;4.600;2022-10-16T01:27:48;2.13;;;1.73;;
75005;SDS011;63553;51.814;4.600;2022-10-16T01:30:17;2.13;;;1.55;;
75005;SDS011;63553;51.814;4.600;2022-10-16T01:32:50;2.25;;;1.60;;
75005;SDS011;63553;51.814;4.600;2022-10-16T01:35:23;1.55;;;1.45;;
75005;SDS011;63553;51.814;4.600;2022-10-16T01:37:54;2.95;;;1.77;;
75005;SDS011;63553;51.814;4.600;2022-10-16T01:40:39;2.28;;;1.92;;
75005;SDS011;63553;51.814;4.600;2022-10-16T01:43:11;1.83;;;1.67;;
75005;SDS011;63553;51.814;4.600;2022-10-16T01:45:39;2.25;;;1.63;;
75005;SDS011;63553;51.814;4.600;2022-10-16T01:48:06;1.80;;;1.55;;
75005;SDS011;63553;51.814;4.600;2022-10-16T01:50:35;2.40;;;1.67;;
75005;SDS011;63553;51.814;4.600;2022-10-16T01:53:05;1.70;;;1.60;;
75005;SDS011;63553;51.814;4.600;2022-10-16T01:55:35;2.95;;;1.65;;
75005;SDS011;63553;51.814;4.600;2022-10-16T01:58:04;1.65;;;1.55;;
75005;SDS011;63553;51.814;4.600;2022-10-16T02:00:32;1.70;;;1.60;;
75005;SDS011;63553;51.814;4.600;2022-10-16T02:02:58;3.75;;;1.65;;
75005;SDS011;63553;51.814;4.600;2022-10-16T02:08:05;2.13;;;1.35;;
75005;SDS011;63553;51.814;4.600;2022-10-16T02:10:30;3.72;;;1.70;;
75005;SDS011;63553;51.814;4.600;2022-10-16T02:13:06;2.33;;;1.70;;
75005;SDS011;63553;51.814;4.600;2022-10-16T02:15:35;3.20;;;1.52;;
75005;SDS011;63553;51.814;4.600;2022-10-16T02:18:01;1.30;;;1.30;;
75005;SDS011;63553;51.814;4.600;2022-10-16T02:20:28;3.15;;;1.30;;
75005;SDS011;63553;51.814;4.600;2022-10-16T02:22:59;2.25;;;1.38;;
75005;SDS011;63553;51.814;4.600;2022-10-16T02:25:35;4.20;;;2.47;;
75005;SDS011;63553;51.814;4.600;2022-10-16T02:28:08;1.17;;;1.17;;
75005;SDS011;63553;51.814;4.600;2022-10-16T02:33:13;1.52;;;1.30;;
75005;SDS011;63553;51.814;4.600;2022-10-16T02:35:41;2.17;;;1.40;;
75005;SDS011;63553;51.814;4.600;2022-10-16T02:38:08;2.70;;;1.40;;
75005;SDS011;63553;51.814;4.600;2022-10-16T02:40:34;2.05;;;1.27;;
75005;SDS011;63553;51.814;4.600;2022-10-16T02:43:02;1.83;;;1.30;;
75005;SDS011;63553;51.814;4.600;2022-10-16T02:45:29;2.70;;;1.45;;
75005;SDS011;63553;51.814;4.600;2022-10-16T02:47:54;3.25;;;1.48;;
75005;SDS011;63553;51.814;4.600;2022-10-16T02:50:19;2.57;;;1.40;;
75005;SDS011;63553;51.814;4.600;2022-10-16T02:52:45;1.90;;;1.27;;
75005;SDS011;63553;51.814;4.600;2022-10-16T02:55:10;1.93;;;1.30;;
75005;SDS011;63553;51.814;4.600;2022-10-16T02:57:35;1.53;;;1.40;;
75005;SDS011;63553;51.814;4.600;2022-10-16T03:00:02;2.08;;;1.17;;
75005;SDS011;63553;51.814;4.600;2022-10-16T03:02:29;2.08;;;1.30;;
75005;SDS011;63553;51.814;4.600;2022-10-16T03:04:54;2.07;;;1.37;;
75005;SDS011;63553;51.814;4.600;2022-10-16T03:07:20;1.40;;;1.27;;
75005;SDS011;63553;51.814;4.600;2022-10-16T03:09:45;1.87;;;1.47;;
75005;SDS011;63553;51.814;4.600;2022-10-16T03:12:10;1.40;;;1.20;;
75005;SDS011;63553;51.814;4.600;2022-10-16T03:14:37;1.60;;;1.45;;
75005;SDS011;63553;51.814;4.600;2022-10-16T03:17:02;1.83;;;1.30;;
75005;SDS011;63553;51.814;4.600;2022-10-16T03:19:27;1.73;;;1.35;;
75005;SDS011;63553;51.814;4.600;2022-10-16T03:21:53;1.57;;;1.30;;
75005;SDS011;63553;51.814;4.600;2022-10-16T03:24:18;3.13;;;1.90;;
75005;SDS011;63553;51.814;4.600;2022-10-16T03:26:43;2.45;;;1.33;;
75005;SDS011;63553;51.814;4.600;2022-10-16T03:29:08;2.70;;;0.93;;
75005;SDS011;63553;51.814;4.600;2022-10-16T03:31:34;3.53;;;1.30;;
75005;SDS011;63553;51.814;4.600;2022-10-16T03:33:59;2.93;;;1.40;;
75005;SDS011;63553;51.814;4.600;2022-10-16T03:36:24;1.23;;;1.17;;
75005;SDS011;63553;51.814;4.600;2022-10-16T03:38:50;2.27;;;1.33;;
75005;SDS011;63553;51.814;4.600;2022-10-16T03:41:15;1.40;;;1.30;;
75005;SDS011;63553;51.814;4.600;2022-10-16T03:43:41;1.50;;;1.40;;
75005;SDS011;63553;51.814;4.600;2022-10-16T03:46:06;2.08;;;1.20;;
75005;SDS011;63553;51.814;4.600;2022-10-16T03:48:31;1.53;;;1.20;;
75005;SDS011;63553;51.814;4.600;2022-10-16T03:50:57;2.28;;;1.35;;
75005;SDS011;63553;51.814;4.600;2022-10-16T03:53:23;6.32;;;1.75;;
75005;SDS011;63553;51.814;4.600;2022-10-16T03:55:48;2.85;;;1.17;;
75005;SDS011;63553;51.814;4.600;2022-10-16T03:58:14;2.97;;;1.42;;
75005;SDS011;63553;51.814;4.600;2022-10-16T04:00:40;4.27;;;1.97;;
75005;SDS011;63553;51.814;4.600;2022-10-16T04:03:06;1.92;;;1.50;;
75005;SDS011;63553;51.814;4.600;2022-10-16T04:05:31;1.47;;;1.37;;
75005;SDS011;63553;51.814;4.600;2022-10-16T04:07:57;3.90;;;1.40;;
75005;SDS011;63553;51.814;4.600;2022-10-16T04:10:22;1.63;;;1.50;;
75005;SDS011;63553;51.814;4.600;2022-10-16T04:12:47;1.73;;;1.13;;
75005;SDS011;63553;51.814;4.600;2022-10-16T04:15:13;1.30;;;1.20;;
75005;SDS011;63553;51.814;4.600;2022-10-16T04:17:38;1.23;;;1.13;;
75005;SDS011;63553;51.814;4.600;2022-10-16T04:20:03;1.93;;;1.57;;
75005;SDS011;63553;51.814;4.600;2022-10-16T04:22:29;2.33;;;1.27;;
75005;SDS011;63553;51.814;4.600;2022-10-16T04:24:55;1.50;;;1.40;;
75005;SDS011;63553;51.814;4.600;2022-10-16T04:27:20;1.90;;;1.53;;
75005;SDS011;63553;51.814;4.600;2022-10-16T04:29:45;3.23;;;1.33;;
75005;SDS011;63553;51.814;4.600;2022-10-16T04:32:10;2.23;;;1.33;;
75005;SDS011;63553;51.814;4.600;2022-10-16T04:34:36;1.47;;;1.30;;
75005;SDS011;63553;51.814;4.600;2022-10-16T04:37:03;1.50;;;1.40;;
75005;SDS011;63553;51.814;4.600;2022-10-16T04:39:28;1.83;;;1.60;;
75005;SDS011;63553;51.814;4.600;2022-10-16T04:41:53;1.90;;;1.40;;
75005;SDS011;63553;51.814;4.600;2022-10-16T04:44:19;1.90;;;1.37;;
75005;SDS011;63553;51.814;4.600;2022-10-16T04:46:44;3.87;;;1.50;;
75005;SDS011;63553;51.814;4.600;2022-10-16T04:49:09;2.30;;;1.57;;
75005;SDS011;63553;51.814;4.600;2022-10-16T04:51:34;1.87;;;1.40;;
75005;SDS011;63553;51.814;4.600;2022-10-16T04:54:00;1.70;;;1.37;;
75005;SDS011;63553;51.814;4.600;2022-10-16T04:56:25;3.17;;;1.88;;
75005;SDS011;63553;51.814;4.600;2022-10-16T04:58:51;1.85;;;1.35;;
75005;SDS011;63553;51.814;4.600;2022-10-16T05:01:16;1.75;;;1.35;;
75005;SDS011;63553;51.814;4.600;2022-10-16T05:03:41;1.92;;;1.27;;
75005;SDS011;63553;51.814;4.600;2022-10-16T05:06:07;1.33;;;1.15;;
75005;SDS011;63553;51.814;4.600;2022-10-16T05:08:33;3.90;;;1.40;;
75005;SDS011;63553;51.814;4.600;2022-10-16T05:10:58;1.38;;;1.27;;
75005;SDS011;63553;51.814;4.600;2022-10-16T05:13:24;1.48;;;1.23;;
75005;SDS011;63553;51.814;4.600;2022-10-16T05:15:49;3.47;;;1.83;;
75005;SDS011;63553;51.814;4.600;2022-10-16T05:18:15;1.70;;;1.60;;
75005;SDS011;63553;51.814;4.600;2022-10-16T05:20:41;3.00;;;1.42;;
75005;SDS011;63553;51.814;4.600;2022-10-16T05:23:06;1.67;;;1.55;;
75005;SDS011;63553;51.814;4.600;2022-10-16T05:25:32;4.38;;;1.65;;
75005;SDS011;63553;51.814;4.600;2022-10-16T05:27:57;1.48;;;1.35;;
75005;SDS011;63553;51.814;4.600;2022-10-16T05:30:23;3.08;;;2.05;;
75005;SDS011;63553;51.814;4.600;2022-10-16T05:32:49;4.63;;;1.73;;
75005;SDS011;63553;51.814;4.600;2022-10-16T05:35:15;1.40;;;1.30;;
75005;SDS011;63553;51.814;4.600;2022-10-16T05:37:41;1.88;;;1.70;;
75005;SDS011;63553;51.814;4.600;2022-10-16T05:40:07;2.88;;;1.50;;
75005;SDS011;63553;51.814;4.600;2022-10-16T05:42:33;2.92;;;1.60;;
75005;SDS011;63553;51.814;4.600;2022-10-16T05:44:58;2.37;;;1.53;;
75005;SDS011;63553;51.814;4.600;2022-10-16T05:47:24;4.13;;;1.50;;
75005;SDS011;63553;51.814;4.600;2022-10-16T05:49:49;5.07;;;1.75;;
75005;SDS011;63553;51.814;4.600;2022-10-16T05:52:15;1.73;;;1.53;;
75005;SDS011;63553;51.814;4.600;2022-10-16T05:54:40;4.23;;;1.63;;
75005;SDS011;63553;51.814;4.600;2022-10-16T05:57:05;1.50;;;1.27;;
75005;SDS011;63553;51.814;4.600;2022-10-16T05:59:31;4.03;;;1.23;;
75005;SDS011;63553;51.814;4.600;2022-10-16T06:01:57;3.67;;;1.55;;
75005;SDS011;63553;51.814;4.600;2022-10-16T06:04:22;3.80;;;1.35;;
75005;SDS011;63553;51.814;4.600;2022-10-16T06:06:47;2.97;;;1.60;;
75005;SDS011;63553;51.814;4.600;2022-10-16T06:09:13;2.63;;;1.40;;
75005;SDS011;63553;51.814;4.600;2022-10-16T06:11:38;3.07;;;1.30;;
75005;SDS011;63553;51.814;4.600;2022-10-16T06:14:03;3.10;;;1.97;;
75005;SDS011;63553;51.814;4.600;2022-10-16T06:16:32;1.85;;;1.40;;
75005;SDS011;63553;51.814;4.600;2022-10-16T06:18:59;1.90;;;1.13;;
75005;SDS011;63553;51.814;4.600;2022-10-16T06:21:26;3.75;;;1.67;;
75005;SDS011;63553;51.814;4.600;2022-10-16T06:23:52;2.20;;;1.40;;
75005;SDS011;63553;51.814;4.600;2022-10-16T06:26:19;2.50;;;1.60;;
75005;SDS011;63553;51.814;4.600;2022-10-16T06:28:47;2.10;;;1.45;;
75005;SDS011;63553;51.814;4.600;2022-10-16T06:31:14;1.88;;;1.30;;
75005;SDS011;63553;51.814;4.600;2022-10-16T06:33:40;2.80;;;1.30;;
75005;SDS011;63553;51.814;4.600;2022-10-16T06:36:07;2.83;;;1.40;;
75005;SDS011;63553;51.814;4.600;2022-10-16T06:38:40;3.45;;;1.60;;
75005;SDS011;63553;51.814;4.600;2022-10-16T06:41:07;1.95;;;1.60;;
75005;SDS011;63553;51.814;4.600;2022-10-16T06:43:34;4.93;;;1.65;;
75005;SDS011;63553;51.814;4.600;2022-10-16T06:46:03;3.67;;;1.60;;
75005;SDS011;63553;51.814;4.600;2022-10-16T06:48:30;2.42;;;2.05;;
75005;SDS011;63553;51.814;4.600;2022-10-16T06:53:26;2.00;;;1.50;;
75005;SDS011;63553;51.814;4.600;2022-10-16T06:55:53;2.22;;;1.50;;
75005;SDS011;63553;51.814;4.600;2022-10-16T06:58:18;1.80;;;1.30;;
75005;SDS011;63553;51.814;4.600;2022-10-16T07:00:44;1.67;;;1.42;;
75005;SDS011;63553;51.814;4.600;2022-10-16T07:03:09;3.40;;;1.52;;
75005;SDS011;63553;51.814;4.600;2022-10-16T07:05:38;3.67;;;1.30;;
75005;SDS011;63553;51.814;4.600;2022-10-16T07:08:05;4.00;;;1.60;;
75005;SDS011;63553;51.814;4.600;2022-10-16T07:10:31;1.73;;;1.60;;
75005;SDS011;63553;51.814;4.600;2022-10-16T07:12:56;3.00;;;1.95;;
75005;SDS011;63553;51.814;4.600;2022-10-16T07:15:22;5.73;;;1.87;;
75005;SDS011;63553;51.814;4.600;2022-10-16T07:17:47;2.78;;;1.45;;
75005;SDS011;63553;51.814;4.600;2022-10-16T07:20:13;1.50;;;1.40;;
75005;SDS011;63553;51.814;4.600;2022-10-16T07:22:38;2.20;;;1.60;;
75005;SDS011;63553;51.814;4.600;2022-10-16T07:25:03;2.17;;;1.60;;
75005;SDS011;63553;51.814;4.600;2022-10-16T07:27:29;1.98;;;1.20;;
75005;SDS011;63553;51.814;4.600;2022-10-16T07:29:54;2.93;;;1.20;;
75005;SDS011;63553;51.814;4.600;2022-10-16T07:32:19;3.83;;;1.30;;
75005;SDS011;63553;51.814;4.600;2022-10-16T07:34:45;2.13;;;1.70;;
75005;SDS011;63553;51.814;4.600;2022-10-16T07:37:10;3.92;;;1.50;;
75005;SDS011;63553;51.814;4.600;2022-10-16T07:39:36;2.47;;;1.33;;
75005;SDS011;63553;51.814;4.600;2022-10-16T07:42:01;1.98;;;1.40;;
75005;SDS011;63553;51.814;4.600;2022-10-16T07:44:27;2.53;;;1.20;;
75005;SDS011;63553;51.814;4.600;2022-10-16T07:46:52;2.40;;;1.40;;
75005;SDS011;63553;51.814;4.600;2022-10-16T07:49:17;1.30;;;1.20;;
75005;SDS011;63553;51.814;4.600;2022-10-16T07:51:43;1.40;;;1.00;;
75005;SDS011;63553;51.814;4.600;2022-10-16T07:54:08;2.27;;;1.27;;
75005;SDS011;63553;51.814;4.600;2022-10-16T07:56:34;1.23;;;1.05;;
75005;SDS011;63553;51.814;4.600;2022-10-16T07:59:00;1.43;;;1.20;;
75005;SDS011;63553;51.814;4.600;2022-10-16T08:01:25;1.63;;;1.02;;
75005;SDS011;63553;51.814;4.600;2022-10-16T08:03:51;2.65;;;1.00;;
75005;SDS011;63553;51.814;4.600;2022-10-16T08:06:17;1.67;;;0.93;;
75005;SDS011;63553;51.814;4.600;2022-10-16T08:08:43;1.50;;;1.00;;
75005;SDS011;63553;51.814;4.600;2022-10-16T08:11:09;2.50;;;1.33;;
75005;SDS011;63553;51.814;4.600;2022-10-16T08:13:34;1.52;;;0.90;;
75005;SDS011;63553;51.814;4.600;2022-10-16T08:16:00;1.27;;;1.10;;
75005;SDS011;63553;51.814;4.600;2022-10-16T08:18:26;2.85;;;1.08;;
75005;SDS011;63553;51.814;4.600;2022-10-16T08:20:58;3.73;;;1.10;;
75005;SDS011;63553;51.814;4.600;2022-10-16T08:23:25;1.45;;;0.98;;
75005;SDS011;63553;51.814;4.600;2022-10-16T08:25:51;2.78;;;1.15;;
75005;SDS011;63553;51.814;4.600;2022-10-16T08:28:18;2.63;;;0.90;;
75005;SDS011;63553;51.814;4.600;2022-10-16T08:30:44;1.33;;;1.00;;
75005;SDS011;63553;51.814;4.600;2022-10-16T08:33:09;1.27;;;0.90;;
75005;SDS011;63553;51.814;4.600;2022-10-16T08:35:34;2.17;;;1.37;;
75005;SDS011;63553;51.814;4.600;2022-10-16T08:38:02;1.45;;;1.10;;
75005;SDS011;63553;51.814;4.600;2022-10-16T08:40:28;1.67;;;0.90;;
75005;SDS011;63553;51.814;4.600;2022-10-16T08:45:43;3.22;;;1.10;;
75005;SDS011;63553;51.814;4.600;2022-10-16T08:48:45;2.60;;;1.10;;
75005;SDS011;63553;51.814;4.600;2022-10-16T08:51:15;1.65;;;0.80;;
75005;SDS011;63553;51.814;4.600;2022-10-16T08:53:55;2.40;;;1.10;;
75005;SDS011;63553;51.814;4.600;2022-10-16T08:56:23;1.60;;;0.90;;
75005;SDS011;63553;51.814;4.600;2022-10-16T08:58:49;1.05;;;0.90;;
75005;SDS011;63553;51.814;4.600;2022-10-16T09:01:16;1.27;;;1.15;;
75005;SDS011;63553;51.814;4.600;2022-10-16T09:06:42;3.67;;;1.15;;
75005;SDS011;63553;51.814;4.600;2022-10-16T09:14:35;1.30;;;1.15;;
75005;SDS011;63553;51.814;4.600;2022-10-16T09:22:37;2.72;;;1.08;;
75005;SDS011;63553;51.814;4.600;2022-10-16T09:25:11;2.42;;;1.20;;
75005;SDS011;63553;51.814;4.600;2022-10-16T09:27:42;2.88;;;1.27;;
75005;SDS011;63553;51.814;4.600;2022-10-16T09:30:11;1.77;;;1.05;;
75005;SDS011;63553;51.814;4.600;2022-10-16T09:32:37;1.23;;;1.10;;
75005;SDS011;63553;51.814;4.600;2022-10-16T09:35:04;1.58;;;1.05;;
75005;SDS011;63553;51.814;4.600;2022-10-16T09:37:39;2.05;;;1.05;;
75005;SDS011;63553;51.814;4.600;2022-10-16T09:40:11;2.60;;;1.08;;
75005;SDS011;63553;51.814;4.600;2022-10-16T09:42:38;2.15;;;0.93;;
75005;SDS011;63553;51.814;4.600;2022-10-16T09:45:04;3.70;;;1.40;;
75005;SDS011;63553;51.814;4.600;2022-10-16T09:47:30;1.70;;;1.10;;
75005;SDS011;63553;51.814;4.600;2022-10-16T09:49:57;1.20;;;1.10;;
75005;SDS011;63553;51.814;4.600;2022-10-16T09:52:31;2.00;;;1.20;;
75005;SDS011;63553;51.814;4.600;2022-10-16T09:57:23;2.15;;;1.10;;
75005;SDS011;63553;51.814;4.600;2022-10-16T09:59:50;1.10;;;1.00;;
75005;SDS011;63553;51.814;4.600;2022-10-16T10:02:38;4.47;;;1.15;;
75005;SDS011;63553;51.814;4.600;2022-10-16T10:05:16;2.10;;;1.15;;
75005;SDS011;63553;51.814;4.600;2022-10-16T10:07:44;1.95;;;1.05;;
75005;SDS011;63553;51.814;4.600;2022-10-16T10:10:21;1.67;;;1.08;;
75005;SDS011;63553;51.814;4.600;2022-10-16T10:12:48;1.38;;;1.02;;
75005;SDS011;63553;51.814;4.600;2022-10-16T10:15:13;2.13;;;0.88;;
75005;SDS011;63553;51.814;4.600;2022-10-16T10:17:51;3.88;;;1.42;;
75005;SDS011;63553;51.814;4.600;2022-10-16T10:20:29;4.22;;;1.20;;
75005;SDS011;63553;51.814;4.600;2022-10-16T10:23:23;5.22;;;1.20;;
75005;SDS011;63553;51.814;4.600;2022-10-16T10:28:32;3.70;;;1.55;;
75005;SDS011;63553;51.814;4.600;2022-10-16T10:31:13;2.17;;;1.17;;
75005;SDS011;63553;51.814;4.600;2022-10-16T11:03:24;4.53;;;1.00;;
75005;SDS011;63553;51.814;4.600;2022-10-16T11:06:04;1.40;;;1.00;;
75005;SDS011;63553;51.814;4.600;2022-10-16T11:11:09;3.85;;;1.23;;
75005;SDS011;63553;51.814;4.600;2022-10-16T11:16:24;2.35;;;1.10;;
75005;SDS011;63553;51.814;4.600;2022-10-16T11:21:30;2.03;;;0.90;;
75005;SDS011;63553;51.814;4.600;2022-10-16T11:24:08;4.63;;;1.02;;
75005;SDS011;63553;51.814;4.600;2022-10-16T11:26:43;2.60;;;1.42;;
75005;SDS011;63553;51.814;4.600;2022-10-16T11:29:23;3.28;;;1.20;;
75005;SDS011;63553;51.814;4.600;2022-10-16T11:31:55;1.77;;;1.10;;
75005;SDS011;63553;51.814;4.600;2022-10-16T11:34:44;2.38;;;0.88;;
75005;SDS011;63553;51.814;4.600;2022-10-16T11:37:19;3.08;;;1.00;;
75005;SDS011;63553;51.814;4.600;2022-10-16T11:39:50;2.30;;;0.90;;
75005;SDS011;63553;51.814;4.600;2022-10-16T11:44:57;2.65;;;1.42;;
75005;SDS011;63553;51.814;4.600;2022-10-16T11:50:20;2.55;;;1.30;;
75005;SDS011;63553;51.814;4.600;2022-10-16T11:55:53;3.40;;;1.30;;
75005;SDS011;63553;51.814;4.600;2022-10-16T12:01:01;2.00;;;1.10;;
75005;SDS011;63553;51.814;4.600;2022-10-16T12:06:43;2.72;;;1.10;;
75005;SDS011;63553;51.814;4.600;2022-10-16T12:09:21;4.40;;;1.48;;
75005;SDS011;63553;51.814;4.600;2022-10-16T12:11:50;2.05;;;1.20;;
75005;SDS011;63553;51.814;4.600;2022-10-16T12:14:21;1.63;;;0.73;;
75005;SDS011;63553;51.814;4.600;2022-10-16T12:19:20;2.60;;;1.42;;
75005;SDS011;63553;51.814;4.600;2022-10-16T12:21:55;3.08;;;1.50;;
75005;SDS011;63553;51.814;4.600;2022-10-16T12:24:32;6.00;;;4.03;;
75005;SDS011;63553;51.814;4.600;2022-10-16T12:26:59;5.40;;;3.08;;
75005;SDS011;63553;51.814;4.600;2022-10-16T12:31:59;5.78;;;1.83;;
75005;SDS011;63553;51.814;4.600;2022-10-16T12:34:40;13.82;;;7.65;;
75005;SDS011;63553;51.814;4.600;2022-10-16T12:37:09;6.18;;;2.53;;
75005;SDS011;63553;51.814;4.600;2022-10-16T12:39:38;4.75;;;2.17;;
75005;SDS011;63553;51.814;4.600;2022-10-16T12:42:04;5.32;;;1.70;;
75005;SDS011;63553;51.814;4.600;2022-10-16T12:44:49;2.47;;;1.70;;
75005;SDS011;63553;51.814;4.600;2022-10-16T12:47:19;6.32;;;2.08;;
75005;SDS011;63553;51.814;4.600;2022-10-16T12:49:52;3.70;;;1.90;;
75005;SDS011;63553;51.814;4.600;2022-10-16T12:52:38;5.43;;;1.98;;
75005;SDS011;63553;51.814;4.600;2022-10-16T12:55:05;3.58;;;1.80;;
75005;SDS011;63553;51.814;4.600;2022-10-16T13:11:05;3.15;;;1.83;;
75005;SDS011;63553;51.814;4.600;2022-10-16T13:19:58;4.25;;;1.73;;
75005;SDS011;63553;51.814;4.600;2022-10-16T13:22:44;3.75;;;1.50;;
75005;SDS011;63553;51.814;4.600;2022-10-16T13:28:08;2.67;;;1.25;;
75005;SDS011;63553;51.814;4.600;2022-10-16T13:33:20;4.25;;;1.30;;
75005;SDS011;63553;51.814;4.600;2022-10-16T13:35:55;3.72;;;1.20;;
75005;SDS011;63553;51.814;4.600;2022-10-16T13:38:23;2.17;;;1.27;;
75005;SDS011;63553;51.814;4.600;2022-10-16T13:40:56;5.30;;;1.77;;
75005;SDS011;63553;51.814;4.600;2022-10-16T13:46:10;3.38;;;1.40;;
75005;SDS011;63553;51.814;4.600;2022-10-16T13:48:37;3.80;;;1.45;;
75005;SDS011;63553;51.814;4.600;2022-10-16T13:51:13;5.82;;;2.17;;
75005;SDS011;63553;51.814;4.600;2022-10-16T13:53:43;5.18;;;1.80;;
75005;SDS011;63553;51.814;4.600;2022-10-16T13:56:19;4.75;;;1.42;;
75005;SDS011;63553;51.814;4.600;2022-10-16T13:58:46;2.78;;;1.55;;
75005;SDS011;63553;51.814;4.600;2022-10-16T14:01:23;5.80;;;1.50;;
75005;SDS011;63553;51.814;4.600;2022-10-16T14:03:52;5.40;;;1.45;;
75005;SDS011;63553;51.814;4.600;2022-10-16T14:06:21;5.43;;;1.55;;
75005;SDS011;63553;51.814;4.600;2022-10-16T14:08:59;2.75;;;1.35;;
75005;SDS011;63553;51.814;4.600;2022-10-16T14:11:28;3.90;;;1.50;;
75005;SDS011;63553;51.814;4.600;2022-10-16T14:13:54;4.20;;;1.70;;
75005;SDS011;63553;51.814;4.600;2022-10-16T14:16:24;4.07;;;1.40;;
75005;SDS011;63553;51.814;4.600;2022-10-16T14:21:28;6.05;;;1.83;;
75005;SDS011;63553;51.814;4.600;2022-10-16T14:23:55;4.40;;;1.33;;
75005;SDS011;63553;51.814;4.600;2022-10-16T14:26:24;2.97;;;1.27;;
75005;SDS011;63553;51.814;4.600;2022-10-16T14:32:22;5.75;;;1.63;;
75005;SDS011;63553;51.814;4.600;2022-10-16T14:34:52;6.68;;;1.42;;
75005;SDS011;63553;51.814;4.600;2022-10-16T14:37:25;3.97;;;1.30;;
75005;SDS011;63553;51.814;4.600;2022-10-16T14:39:53;4.88;;;1.50;;
75005;SDS011;63553;51.814;4.600;2022-10-16T14:42:21;6.20;;;1.55;;
75005;SDS011;63553;51.814;4.600;2022-10-16T14:44:51;4.38;;;1.80;;
75005;SDS011;63553;51.814;4.600;2022-10-16T14:47:19;3.38;;;1.23;;
75005;SDS011;63553;51.814;4.600;2022-10-16T14:49:49;5.03;;;1.95;;
75005;SDS011;63553;51.814;4.600;2022-10-16T14:52:14;2.58;;;1.40;;
75005;SDS011;63553;51.814;4.600;2022-10-16T14:54:40;3.38;;;1.25;;
75005;SDS011;63553;51.814;4.600;2022-10-16T14:57:06;4.90;;;1.40;;
75005;SDS011;63553;51.814;4.600;2022-10-16T14:59:41;4.05;;;1.35;;
75005;SDS011;63553;51.814;4.600;2022-10-16T15:04:56;6.60;;;1.50;;
75005;SDS011;63553;51.814;4.600;2022-10-16T15:07:22;4.68;;;1.55;;
75005;SDS011;63553;51.814;4.600;2022-10-16T15:09:48;5.72;;;1.85;;
75005;SDS011;63553;51.814;4.600;2022-10-16T15:12:13;2.60;;;1.42;;
75005;SDS011;63553;51.814;4.600;2022-10-16T15:14:39;5.95;;;1.50;;
75005;SDS011;63553;51.814;4.600;2022-10-16T15:17:04;3.67;;;1.42;;
75005;SDS011;63553;51.814;4.600;2022-10-16T15:19:30;8.65;;;1.88;;
75005;SDS011;63553;51.814;4.600;2022-10-16T15:21:55;5.13;;;1.90;;
75005;SDS011;63553;51.814;4.600;2022-10-16T15:24:21;3.47;;;1.63;;
75005;SDS011;63553;51.814;4.600;2022-10-16T15:26:46;5.23;;;1.43;;
75005;SDS011;63553;51.814;4.600;2022-10-16T15:29:12;7.53;;;2.20;;
75005;SDS011;63553;51.814;4.600;2022-10-16T15:31:38;5.90;;;1.88;;
75005;SDS011;63553;51.814;4.600;2022-10-16T15:34:03;7.07;;;2.28;;
75005;SDS011;63553;51.814;4.600;2022-10-16T15:36:34;5.22;;;1.73;;
75005;SDS011;63553;51.814;4.600;2022-10-16T15:39:02;4.78;;;1.48;;
75005;SDS011;63553;51.814;4.600;2022-10-16T15:41:29;3.28;;;1.90;;
75005;SDS011;63553;51.814;4.600;2022-10-16T15:43:54;6.10;;;2.00;;
75005;SDS011;63553;51.814;4.600;2022-10-16T15:46:20;4.30;;;1.67;;
75005;SDS011;63553;51.814;4.600;2022-10-16T15:48:50;6.78;;;2.35;;
75005;SDS011;63553;51.814;4.600;2022-10-16T15:51:16;7.32;;;2.10;;
75005;SDS011;63553;51.814;4.600;2022-10-16T15:53:42;9.02;;;3.05;;
75005;SDS011;63553;51.814;4.600;2022-10-16T15:56:09;8.20;;;3.00;;
75005;SDS011;63553;51.814;4.600;2022-10-16T15:58:35;7.60;;;2.40;;
75005;SDS011;63553;51.814;4.600;2022-10-16T16:01:01;9.98;;;3.03;;
75005;SDS011;63553;51.814;4.600;2022-10-16T16:03:28;7.13;;;3.10;;
75005;SDS011;63553;51.814;4.600;2022-10-16T16:05:54;9.45;;;3.10;;
75005;SDS011;63553;51.814;4.600;2022-10-16T16:08:20;12.15;;;2.97;;
75005;SDS011;63553;51.814;4.600;2022-10-16T16:10:56;10.82;;;3.03;;
75005;SDS011;63553;51.814;4.600;2022-10-16T16:13:22;9.85;;;2.83;;
75005;SDS011;63553;51.814;4.600;2022-10-16T16:15:48;10.47;;;4.20;;
75005;SDS011;63553;51.814;4.600;2022-10-16T16:18:13;6.43;;;2.63;;
75005;SDS011;63553;51.814;4.600;2022-10-16T16:20:38;12.67;;;2.70;;
75005;SDS011;63553;51.814;4.600;2022-10-16T16:23:04;11.93;;;2.90;;
75005;SDS011;63553;51.814;4.600;2022-10-16T16:25:29;5.07;;;2.20;;
75005;SDS011;63553;51.814;4.600;2022-10-16T16:27:54;8.37;;;2.53;;
75005;SDS011;63553;51.814;4.600;2022-10-16T16:30:20;6.23;;;2.57;;
75005;SDS011;63553;51.814;4.600;2022-10-16T16:32:45;8.88;;;2.83;;
75005;SDS011;63553;51.814;4.600;2022-10-16T16:35:11;10.75;;;3.53;;
75005;SDS011;63553;51.814;4.600;2022-10-16T16:37:36;7.83;;;2.80;;
75005;SDS011;63553;51.814;4.600;2022-10-16T16:40:02;9.83;;;3.03;;
75005;SDS011;63553;51.814;4.600;2022-10-16T16:42:27;5.40;;;2.50;;
75005;SDS011;63553;51.814;4.600;2022-10-16T16:44:53;6.25;;;2.78;;
75005;SDS011;63553;51.814;4.600;2022-10-16T16:47:18;9.10;;;2.45;;
75005;SDS011;63553;51.814;4.600;2022-10-16T16:49:44;5.03;;;2.55;;
75005;SDS011;63553;51.814;4.600;2022-10-16T16:52:11;6.50;;;3.00;;
75005;SDS011;63553;51.814;4.600;2022-10-16T16:54:37;11.68;;;2.83;;
75005;SDS011;63553;51.814;4.600;2022-10-16T16:57:02;9.93;;;2.40;;
75005;SDS011;63553;51.814;4.600;2022-10-16T16:59:29;7.90;;;2.85;;
75005;SDS011;63553;51.814;4.600;2022-10-16T17:01:57;7.28;;;2.60;;
75005;SDS011;63553;51.814;4.600;2022-10-16T17:04:23;5.78;;;2.80;;